sensor_id;sensor_type;location;lat;lon;timestamp;pressure;altitude;pressure_sealevel;temperature;humidity
61757;BME280;57225;61.460;24.060;2023-10-09T00:01:29;99612.88;;;-1.77;100.00
61757;BME280;57225;61.460;24.060;2023-10-09T00:04:15;99607.41;;;-1.77;100.00
61757;BME280;57225;61.460;24.060;2023-10-09T00:07:00;99620.59;;;-1.58;100.00
61757;BME280;57225;61.460;24.060;2023-10-09T00:09:44;99620.72;;;-1.55;100.00
61757;BME280;57225;61.460;24.060;2023-10-09T00:12:31;99593.81;;;-1.65;100.00
61757;BME280;57225;61.460;24.060;2023-10-09T00:15:16;99601.13;;;-1.57;100.00
61757;BME280;57225;61.460;24.060;2023-10-09T00:18:02;99610.97;;;-1.44;100.00
61757;BME280;57225;61.460;24.060;2023-10-09T00:20:56;99606.56;;;-1.57;100.00
61757;BME280;57225;61.460;24.060;2023-10-09T00:23:56;99605.44;;;-1.56;100.00
61757;BME280;57225;61.460;24.060;2023-10-09T00:26:43;99595.00;;;-1.54;100.00
61757;BME280;57225;61.460;24.060;2023-10-09T00:29:31;99589.25;;;-1.61;100.00
61757;BME280;57225;61.460;24.060;2023-10-09T00:32:21;99605.50;;;-1.44;100.00
61757;BME280;57225;61.460;24.060;2023-10-09T00:35:16;99595.16;;;-1.38;100.00
61757;BME280;57225;61.460;24.060;2023-10-09T00:38:19;99600.75;;;-1.35;100.00
61757;BME280;57225;61.460;24.060;2023-10-09T00:41:03;99601.00;;;-1.28;100.00
61757;BME280;57225;61.460;24.060;2023-10-09T00:43:54;99597.47;;;-1.28;100.00
61757;BME280;57225;61.460;24.060;2023-10-09T00:47:09;99588.94;;;-1.27;100.00
61757;BME280;57225;61.460;24.060;2023-10-09T00:50:07;99580.03;;;-1.36;100.00
61757;BME280;57225;61.460;24.060;2023-10-09T00:52:58;99570.69;;;-1.35;100.00
61757;BME280;57225;61.460;24.060;2023-10-09T00:55:57;99564.50;;;-1.44;100.00
61757;BME280;57225;61.460;24.060;2023-10-09T00:58:48;99580.69;;;-1.39;100.00
61757;BME280;57225;61.460;24.060;2023-10-09T01:01:39;99580.69;;;-1.39;100.00
61757;BME280;57225;61.460;24.060;2023-10-09T01:04:24;99590.69;;;-1.43;100.00
61757;BME280;57225;61.460;24.060;2023-10-09T01:07:13;99576.34;;;-1.52;100.00
61757;BME280;57225;61.460;24.060;2023-10-09T01:10:05;99585.22;;;-1.43;100.00
61757;BME280;57225;61.460;24.060;2023-10-09T01:12:53;99582.03;;;-1.45;100.00
61757;BME280;57225;61.460;24.060;2023-10-09T01:15:39;99578.16;;;-1.44;100.00
61757;BME280;57225;61.460;24.060;2023-10-09T01:18:28;99579.28;;;-1.45;100.00
61757;BME280;57225;61.460;24.060;2023-10-09T01:21:20;99563.91;;;-1.49;100.00
61757;BME280;57225;61.460;24.060;2023-10-09T01:24:11;99575.31;;;-1.47;100.00
61757;BME280;57225;61.460;24.060;2023-10-09T01:26:55;99570.78;;;-1.43;100.00
61757;BME280;57225;61.460;24.060;2023-10-09T01:29:42;99560.16;;;-1.45;100.00
61757;BME280;57225;61.460;24.060;2023-10-09T01:32:27;99554.59;;;-1.48;100.00
61757;BME280;57225;61.460;24.060;2023-10-09T01:35:12;99565.84;;;-1.50;100.00
61757;BME280;57225;61.460;24.060;2023-10-09T01:38:06;99565.63;;;-1.45;100.00
61757;BME280;57225;61.460;24.060;2023-10-09T01:40:57;99557.44;;;-1.45;100.00
61757;BME280;57225;61.460;24.060;2023-10-09T01:43:50;99544.31;;;-1.51;100.00
61757;BME280;57225;61.460;24.060;2023-10-09T01:50:02;99553.31;;;-1.51;100.00
61757;BME280;57225;61.460;24.060;2023-10-09T01:52:49;99555.66;;;-1.41;100.00
61757;BME280;57225;61.460;24.060;2023-10-09T01:55:35;99554.97;;;-1.38;100.00
61757;BME280;57225;61.460;24.060;2023-10-09T01:58:24;99558.88;;;-1.27;100.00
61757;BME280;57225;61.460;24.060;2023-10-09T02:01:08;99559.00;;;-1.11;100.00
61757;BME280;57225;61.460;24.060;2023-10-09T02:03:54;99550.59;;;-1.06;100.00
61757;BME280;57225;61.460;24.060;2023-10-09T02:06:38;99553.69;;;-0.95;100.00
61757;BME280;57225;61.460;24.060;2023-10-09T02:09:22;99529.97;;;-1.03;100.00
61757;BME280;57225;61.460;24.060;2023-10-09T02:12:14;99530.31;;;-1.05;100.00
61757;BME280;57225;61.460;24.060;2023-10-09T02:14:59;99544.56;;;-0.99;100.00
61757;BME280;57225;61.460;24.060;2023-10-09T02:17:50;99545.69;;;-1.00;100.00
61757;BME280;57225;61.460;24.060;2023-10-09T02:20:46;99544.78;;;-1.04;100.00
61757;BME280;57225;61.460;24.060;2023-10-09T02:23:33;99544.13;;;-1.01;100.00
61757;BME280;57225;61.460;24.060;2023-10-09T02:26:34;99527.47;;;-1.08;100.00
61757;BME280;57225;61.460;24.060;2023-10-09T02:29:23;99541.03;;;-1.00;100.00
61757;BME280;57225;61.460;24.060;2023-10-09T02:32:08;99528.59;;;-1.09;100.00
61757;BME280;57225;61.460;24.060;2023-10-09T02:35:01;99528.84;;;-1.02;100.00
61757;BME280;57225;61.460;24.060;2023-10-09T02:37:57;99522.69;;;-0.99;100.00
61757;BME280;57225;61.460;24.060;2023-10-09T02:40:41;99537.72;;;-0.93;100.00
61757;BME280;57225;61.460;24.060;2023-10-09T02:43:44;99543.66;;;-1.03;100.00
61757;BME280;57225;61.460;24.060;2023-10-09T02:46:31;99538.97;;;-1.03;100.00
61757;BME280;57225;61.460;24.060;2023-10-09T02:49:18;99538.97;;;-1.03;100.00
61757;BME280;57225;61.460;24.060;2023-10-09T02:52:02;99524.97;;;-1.01;100.00
61757;BME280;57225;61.460;24.060;2023-10-09T02:54:52;99525.19;;;-1.06;100.00
61757;BME280;57225;61.460;24.060;2023-10-09T02:57:43;99528.63;;;-0.97;100.00
61757;BME280;57225;61.460;24.060;2023-10-09T03:00:29;99534.88;;;-0.85;100.00
61757;BME280;57225;61.460;24.060;2023-10-09T03:03:14;99534.19;;;-0.82;100.00
61757;BME280;57225;61.460;24.060;2023-10-09T03:06:03;99536.03;;;-0.73;100.00
61757;BME280;57225;61.460;24.060;2023-10-09T03:08:54;99525.56;;;-0.84;100.00
61757;BME280;57225;61.460;24.060;2023-10-09T03:11:39;99527.91;;;-0.82;100.00
61757;BME280;57225;61.460;24.060;2023-10-09T03:14:26;99534.09;;;-0.85;100.00
61757;BME280;57225;61.460;24.060;2023-10-09T03:17:12;99537.50;;;-0.88;100.00
61757;BME280;57225;61.460;24.060;2023-10-09T03:19:57;99543.91;;;-0.84;100.00
61757;BME280;57225;61.460;24.060;2023-10-09T03:22:44;99531.81;;;-0.83;100.00
61757;BME280;57225;61.460;24.060;2023-10-09T03:25:29;99529.09;;;-0.83;100.00
61757;BME280;57225;61.460;24.060;2023-10-09T03:28:14;99516.31;;;-0.91;100.00
61757;BME280;57225;61.460;24.060;2023-10-09T03:31:00;99515.19;;;-0.90;100.00
61757;BME280;57225;61.460;24.060;2023-10-09T03:33:46;99517.69;;;-0.85;100.00
61757;BME280;57225;61.460;24.060;2023-10-09T03:36:31;99513.00;;;-0.85;100.00
61757;BME280;57225;61.460;24.060;2023-10-09T03:39:21;99519.94;;;-0.75;100.00
61757;BME280;57225;61.460;24.060;2023-10-09T03:42:18;99500.69;;;-0.78;100.00
61757;BME280;57225;61.460;24.060;2023-10-09T03:45:07;99512.66;;;-0.71;100.00
61757;BME280;57225;61.460;24.060;2023-10-09T03:48:02;99510.38;;;-0.69;100.00
61757;BME280;57225;61.460;24.060;2023-10-09T03:50:52;99501.03;;;-0.68;100.00
61757;BME280;57225;61.460;24.060;2023-10-09T03:53:57;99499.78;;;-0.58;100.00
61757;BME280;57225;61.460;24.060;2023-10-09T03:56:41;99497.03;;;-0.58;100.00
61757;BME280;57225;61.460;24.060;2023-10-09T03:59:26;99494.06;;;-0.53;100.00
61757;BME280;57225;61.460;24.060;2023-10-09T04:02:15;99500.00;;;-0.51;100.00
61757;BME280;57225;61.460;24.060;2023-10-09T04:05:00;99496.22;;;-0.47;100.00
61757;BME280;57225;61.460;24.060;2023-10-09T04:07:44;99494.84;;;-0.41;100.00
61757;BME280;57225;61.460;24.060;2023-10-09T04:10:29;99487.66;;;-0.45;100.00
61757;BME280;57225;61.460;24.060;2023-10-09T04:13:27;99479.00;;;-0.47;100.00
61757;BME280;57225;61.460;24.060;2023-10-09T04:16:17;99481.41;;;-0.46;100.00
61757;BME280;57225;61.460;24.060;2023-10-09T04:19:17;99486.88;;;-0.46;100.00
61757;BME280;57225;61.460;24.060;2023-10-09T04:22:06;99488.47;;;-0.45;100.00
61757;BME280;57225;61.460;24.060;2023-10-09T04:24:53;99483.22;;;-0.50;100.00
61757;BME280;57225;61.460;24.060;2023-10-09T04:27:37;99487.31;;;-0.44;100.00
61757;BME280;57225;61.460;24.060;2023-10-09T04:30:22;99496.19;;;-0.34;100.00
61757;BME280;57225;61.460;24.060;2023-10-09T04:33:07;99495.06;;;-0.33;100.00
61757;BME280;57225;61.460;24.060;2023-10-09T04:36:10;99504.16;;;-0.29;100.00
61757;BME280;57225;61.460;24.060;2023-10-09T04:39:10;99498.13;;;-0.35;100.00
61757;BME280;57225;61.460;24.060;2023-10-09T04:41:55;99493.22;;;-0.29;100.00
61757;BME280;57225;61.460;24.060;2023-10-09T04:44:58;99494.72;;;-0.32;100.00
61757;BME280;57225;61.460;24.060;2023-10-09T04:47:49;99496.97;;;-0.22;100.00
61757;BME280;57225;61.460;24.060;2023-10-09T04:50:33;99490.09;;;-0.16;100.00
61757;BME280;57225;61.460;24.060;2023-10-09T04:53:18;99503.09;;;-0.13;100.00
61757;BME280;57225;61.460;24.060;2023-10-09T04:56:02;99503.53;;;-0.11;100.00
61757;BME280;57225;61.460;24.060;2023-10-09T04:58:49;99496.38;;;-0.15;100.00
61757;BME280;57225;61.460;24.060;2023-10-09T05:01:47;99503.44;;;-0.14;100.00
61757;BME280;57225;61.460;24.060;2023-10-09T05:04:41;99470.38;;;-0.21;100.00
61757;BME280;57225;61.460;24.060;2023-10-09T05:07:26;99497.94;;;-0.02;100.00
61757;BME280;57225;61.460;24.060;2023-10-09T05:10:34;99501.75;;;0.09;100.00
61757;BME280;57225;61.460;24.060;2023-10-09T05:13:18;99511.13;;;0.08;100.00
61757;BME280;57225;61.460;24.060;2023-10-09T05:16:22;99508.84;;;0.10;100.00
61757;BME280;57225;61.460;24.060;2023-10-09T05:19:09;99510.88;;;0.13;100.00
61757;BME280;57225;61.460;24.060;2023-10-09T05:22:13;99491.59;;;0.10;100.00
61757;BME280;57225;61.460;24.060;2023-10-09T05:25:16;99514.34;;;0.26;100.00
61757;BME280;57225;61.460;24.060;2023-10-09T05:28:20;99505.34;;;0.25;100.00
61757;BME280;57225;61.460;24.060;2023-10-09T05:31:27;99505.34;;;0.25;100.00
61757;BME280;57225;61.460;24.060;2023-10-09T05:34:38;99509.94;;;0.21;100.00
61757;BME280;57225;61.460;24.060;2023-10-09T05:37:42;99515.59;;;0.28;100.00
61757;BME280;57225;61.460;24.060;2023-10-09T05:40:31;99504.66;;;0.28;100.00
61757;BME280;57225;61.460;24.060;2023-10-09T05:43:15;99515.09;;;0.38;100.00
61757;BME280;57225;61.460;24.060;2023-10-09T05:46:19;99507.31;;;0.40;100.00
61757;BME280;57225;61.460;24.060;2023-10-09T05:49:19;99510.28;;;0.48;100.00
61757;BME280;57225;61.460;24.060;2023-10-09T05:52:08;99502.25;;;0.55;100.00
61757;BME280;57225;61.460;24.060;2023-10-09T05:55:13;99504.03;;;0.63;100.00
61757;BME280;57225;61.460;24.060;2023-10-09T05:58:09;99499.97;;;0.72;100.00
61757;BME280;57225;61.460;24.060;2023-10-09T06:01:12;99492.59;;;0.76;100.00
61757;BME280;57225;61.460;24.060;2023-10-09T06:04:15;99498.28;;;0.84;100.00
61757;BME280;57225;61.460;24.060;2023-10-09T06:07:01;99506.88;;;0.82;100.00
61757;BME280;57225;61.460;24.060;2023-10-09T06:09:55;99500.75;;;0.89;100.00
61757;BME280;57225;61.460;24.060;2023-10-09T06:12:40;99485.69;;;0.82;100.00
61757;BME280;57225;61.460;24.060;2023-10-09T06:15:27;99502.63;;;1.00;100.00
61757;BME280;57225;61.460;24.060;2023-10-09T06:18:29;99503.50;;;1.04;100.00
61757;BME280;57225;61.460;24.060;2023-10-09T06:21:18;99511.47;;;1.09;100.00
61757;BME280;57225;61.460;24.060;2023-10-09T06:24:26;99512.59;;;1.08;100.00
61757;BME280;57225;61.460;24.060;2023-10-09T06:27:17;99522.44;;;1.09;100.00
61757;BME280;57225;61.460;24.060;2023-10-09T06:30:30;99497.31;;;1.07;100.00
61757;BME280;57225;61.460;24.060;2023-10-09T06:33:19;99518.38;;;1.19;100.00
61757;BME280;57225;61.460;24.060;2023-10-09T06:36:04;99519.41;;;1.30;100.00
61757;BME280;57225;61.460;24.060;2023-10-09T06:38:52;99520.00;;;1.39;100.00
61757;BME280;57225;61.460;24.060;2023-10-09T06:41:56;99518.69;;;1.49;100.00
61757;BME280;57225;61.460;24.060;2023-10-09T06:44:52;99526.53;;;1.66;100.00
61757;BME280;57225;61.460;24.060;2023-10-09T06:47:37;99522.19;;;1.65;100.00
61757;BME280;57225;61.460;24.060;2023-10-09T06:50:42;99533.34;;;1.72;100.00
61757;BME280;57225;61.460;24.060;2023-10-09T06:54:01;99530.09;;;1.86;100.00
61757;BME280;57225;61.460;24.060;2023-10-09T06:56:51;99523.81;;;1.85;100.00
61757;BME280;57225;61.460;24.060;2023-10-09T06:59:36;99538.72;;;2.03;100.00
61757;BME280;57225;61.460;24.060;2023-10-09T07:02:46;99533.38;;;2.11;100.00
61757;BME280;57225;61.460;24.060;2023-10-09T07:05:30;99543.53;;;2.26;100.00
61757;BME280;57225;61.460;24.060;2023-10-09T07:08:32;99540.28;;;2.39;100.00
61757;BME280;57225;61.460;24.060;2023-10-09T07:11:21;99542.94;;;2.55;100.00
61757;BME280;57225;61.460;24.060;2023-10-09T07:14:25;99542.34;;;2.65;100.00
61757;BME280;57225;61.460;24.060;2023-10-09T07:17:15;99540.09;;;2.71;100.00
61757;BME280;57225;61.460;24.060;2023-10-09T07:20:00;99559.19;;;2.83;100.00
61757;BME280;57225;61.460;24.060;2023-10-09T07:22:57;99547.44;;;2.86;100.00
61757;BME280;57225;61.460;24.060;2023-10-09T07:26:04;99562.56;;;2.96;100.00
61757;BME280;57225;61.460;24.060;2023-10-09T07:29:04;99556.28;;;2.95;100.00
61757;BME280;57225;61.460;24.060;2023-10-09T07:32:05;99560.44;;;3.08;100.00
61757;BME280;57225;61.460;24.060;2023-10-09T07:34:56;99550.75;;;3.18;100.00
61757;BME280;57225;61.460;24.060;2023-10-09T07:37:43;99560.22;;;3.43;100.00
61757;BME280;57225;61.460;24.060;2023-10-09T07:40:38;99567.88;;;3.53;100.00
61757;BME280;57225;61.460;24.060;2023-10-09T07:43:41;99559.31;;;3.58;100.00
61757;BME280;57225;61.460;24.060;2023-10-09T07:49:58;99567.88;;;3.80;100.00
61757;BME280;57225;61.460;24.060;2023-10-09T07:52:43;99559.41;;;3.66;100.00
61757;BME280;57225;61.460;24.060;2023-10-09T07:55:29;99577.38;;;3.82;100.00
61757;BME280;57225;61.460;24.060;2023-10-09T07:58:23;99574.19;;;3.80;100.00
61757;BME280;57225;61.460;24.060;2023-10-09T08:01:09;99573.19;;;3.92;100.00
61757;BME280;57225;61.460;24.060;2023-10-09T08:04:12;99576.25;;;4.13;100.00
61757;BME280;57225;61.460;24.060;2023-10-09T08:06:56;99579.13;;;4.24;100.00
61757;BME280;57225;61.460;24.060;2023-10-09T08:09:43;99577.09;;;4.17;100.00
61757;BME280;57225;61.460;24.060;2023-10-09T08:12:30;99571.59;;;3.91;100.00
61757;BME280;57225;61.460;24.060;2023-10-09T08:15:33;99578.59;;;3.58;100.00
61757;BME280;57225;61.460;24.060;2023-10-09T08:18:35;99571.31;;;3.47;100.00
61757;BME280;57225;61.460;24.060;2023-10-09T08:21:28;99581.88;;;3.68;100.00
61757;BME280;57225;61.460;24.060;2023-10-09T08:24:47;99569.56;;;3.61;100.00
61757;BME280;57225;61.460;24.060;2023-10-09T08:27:41;99580.31;;;3.67;100.00
61757;BME280;57225;61.460;24.060;2023-10-09T08:30:38;99548.59;;;3.53;100.00
61757;BME280;57225;61.460;24.060;2023-10-09T08:33:29;99572.22;;;3.81;100.00
61757;BME280;57225;61.460;24.060;2023-10-09T08:36:27;99584.63;;;3.94;100.00
61757;BME280;57225;61.460;24.060;2023-10-09T08:39:12;99568.97;;;3.98;100.00
61757;BME280;57225;61.460;24.060;2023-10-09T08:42:01;99579.59;;;3.99;100.00
61757;BME280;57225;61.460;24.060;2023-10-09T08:44:47;99580.50;;;4.07;100.00
61757;BME280;57225;61.460;24.060;2023-10-09T08:47:33;99578.38;;;4.23;100.00
61757;BME280;57225;61.460;24.060;2023-10-09T08:50:19;99580.81;;;4.32;100.00
61757;BME280;57225;61.460;24.060;2023-10-09T08:53:05;99588.31;;;4.31;100.00
61757;BME280;57225;61.460;24.060;2023-10-09T08:55:49;99584.22;;;4.52;100.00
61757;BME280;57225;61.460;24.060;2023-10-09T08:58:35;99581.56;;;4.59;100.00
61757;BME280;57225;61.460;24.060;2023-10-09T09:01:22;99594.47;;;4.51;99.48
61757;BME280;57225;61.460;24.060;2023-10-09T09:04:08;99590.34;;;4.38;100.00
61757;BME280;57225;61.460;24.060;2023-10-09T09:06:53;99576.28;;;4.47;100.00
61757;BME280;57225;61.460;24.060;2023-10-09T09:09:37;99578.34;;;4.53;100.00
61757;BME280;57225;61.460;24.060;2023-10-09T09:12:22;99593.41;;;4.96;99.66
61757;BME280;57225;61.460;24.060;2023-10-09T09:15:15;99584.75;;;5.38;93.71
61757;BME280;57225;61.460;24.060;2023-10-09T09:18:06;99592.97;;;5.75;95.49
61757;BME280;57225;61.460;24.060;2023-10-09T09:20:53;99589.19;;;5.97;89.82
61757;BME280;57225;61.460;24.060;2023-10-09T09:23:53;99597.97;;;6.07;88.79
61757;BME280;57225;61.460;24.060;2023-10-09T09:26:39;99593.75;;;5.76;89.14
61757;BME280;57225;61.460;24.060;2023-10-09T09:32:31;99599.53;;;6.04;89.52
61757;BME280;57225;61.460;24.060;2023-10-09T09:35:22;99592.06;;;6.15;88.63
61757;BME280;57225;61.460;24.060;2023-10-09T09:38:11;99589.31;;;6.15;88.01
61757;BME280;57225;61.460;24.060;2023-10-09T09:41:02;99594.03;;;6.11;88.37
61757;BME280;57225;61.460;24.060;2023-10-09T09:43:56;99608.16;;;5.95;88.95
61757;BME280;57225;61.460;24.060;2023-10-09T09:49:50;99607.97;;;5.74;90.62
61757;BME280;57225;61.460;24.060;2023-10-09T09:52:44;99611.88;;;5.70;89.70
61757;BME280;57225;61.460;24.060;2023-10-09T09:55:33;99609.59;;;5.79;90.17
61757;BME280;57225;61.460;24.060;2023-10-09T09:58:18;99602.94;;;5.87;89.20
61757;BME280;57225;61.460;24.060;2023-10-09T10:01:06;99600.16;;;5.87;90.50
61757;BME280;57225;61.460;24.060;2023-10-09T10:04:26;99598.28;;;5.98;87.97
61757;BME280;57225;61.460;24.060;2023-10-09T10:07:12;99602.59;;;5.92;89.64
61757;BME280;57225;61.460;24.060;2023-10-09T10:10:00;99606.81;;;5.82;87.84
61757;BME280;57225;61.460;24.060;2023-10-09T10:12:52;99606.75;;;5.72;88.39
61757;BME280;57225;61.460;24.060;2023-10-09T10:16:04;99602.34;;;5.63;89.06
61757;BME280;57225;61.460;24.060;2023-10-09T10:19:04;99610.19;;;5.58;89.15
61757;BME280;57225;61.460;24.060;2023-10-09T10:22:24;99608.50;;;5.46;89.90
61757;BME280;57225;61.460;24.060;2023-10-09T10:25:31;99611.06;;;5.65;90.51
61757;BME280;57225;61.460;24.060;2023-10-09T10:28:33;99610.06;;;5.44;88.96
61757;BME280;57225;61.460;24.060;2023-10-09T10:32:01;99607.03;;;5.56;90.82
61757;BME280;57225;61.460;24.060;2023-10-09T10:34:53;99609.81;;;5.59;92.47
61757;BME280;57225;61.460;24.060;2023-10-09T10:37:40;99605.81;;;5.50;92.06
61757;BME280;57225;61.460;24.060;2023-10-09T10:40:44;99605.59;;;5.76;92.73
61757;BME280;57225;61.460;24.060;2023-10-09T10:43:41;99600.00;;;6.20;91.13
61757;BME280;57225;61.460;24.060;2023-10-09T10:46:31;99595.41;;;6.45;83.21
61757;BME280;57225;61.460;24.060;2023-10-09T10:49:21;99597.31;;;6.31;84.61
61757;BME280;57225;61.460;24.060;2023-10-09T10:52:05;99594.88;;;6.22;86.06
61757;BME280;57225;61.460;24.060;2023-10-09T10:55:11;99606.66;;;6.09;83.89
61757;BME280;57225;61.460;24.060;2023-10-09T10:58:22;99602.88;;;5.80;84.72
61757;BME280;57225;61.460;24.060;2023-10-09T11:01:19;99611.38;;;6.04;85.18
61757;BME280;57225;61.460;24.060;2023-10-09T11:04:11;99598.94;;;5.84;84.96
61757;BME280;57225;61.460;24.060;2023-10-09T11:07:00;99596.34;;;6.02;86.95
61757;BME280;57225;61.460;24.060;2023-10-09T11:09:54;99615.63;;;5.91;84.70
61757;BME280;57225;61.460;24.060;2023-10-09T11:12:48;99615.13;;;5.82;86.51
61757;BME280;57225;61.460;24.060;2023-10-09T11:15:52;99609.78;;;6.00;86.17
61757;BME280;57225;61.460;24.060;2023-10-09T11:18:55;99595.91;;;5.96;83.31
61757;BME280;57225;61.460;24.060;2023-10-09T11:21:41;99611.44;;;6.12;84.81
61757;BME280;57225;61.460;24.060;2023-10-09T11:24:27;99603.97;;;6.19;79.91
61757;BME280;57225;61.460;24.060;2023-10-09T11:27:17;99600.88;;;6.31;78.54
61757;BME280;57225;61.460;24.060;2023-10-09T11:30:09;99599.66;;;6.25;78.81
61757;BME280;57225;61.460;24.060;2023-10-09T11:33:06;99600.47;;;6.33;77.18
61757;BME280;57225;61.460;24.060;2023-10-09T11:35:58;99589.97;;;6.63;80.09
61757;BME280;57225;61.460;24.060;2023-10-09T11:38:43;99592.41;;;6.82;79.12
61757;BME280;57225;61.460;24.060;2023-10-09T11:41:39;99603.56;;;7.18;77.96
61757;BME280;57225;61.460;24.060;2023-10-09T11:44:40;99609.50;;;7.16;78.66
61757;BME280;57225;61.460;24.060;2023-10-09T11:47:34;99598.06;;;7.25;79.81
61757;BME280;57225;61.460;24.060;2023-10-09T11:50:18;99600.00;;;7.14;77.60
61757;BME280;57225;61.460;24.060;2023-10-09T11:53:06;99600.75;;;6.93;80.02
61757;BME280;57225;61.460;24.060;2023-10-09T11:55:53;99612.06;;;6.56;80.17
61757;BME280;57225;61.460;24.060;2023-10-09T11:58:38;99608.84;;;6.43;75.99
61757;BME280;57225;61.460;24.060;2023-10-09T12:01:24;99614.75;;;6.42;75.48
61757;BME280;57225;61.460;24.060;2023-10-09T12:04:10;99606.81;;;6.33;71.43
61757;BME280;57225;61.460;24.060;2023-10-09T12:06:57;99616.22;;;6.22;74.48
61757;BME280;57225;61.460;24.060;2023-10-09T12:09:50;99632.06;;;6.28;75.81
61757;BME280;57225;61.460;24.060;2023-10-09T12:12:40;99632.13;;;6.32;78.25
61757;BME280;57225;61.460;24.060;2023-10-09T12:15:31;99631.69;;;6.30;78.33
61757;BME280;57225;61.460;24.060;2023-10-09T12:18:22;99635.84;;;6.02;79.70
61757;BME280;57225;61.460;24.060;2023-10-09T12:21:08;99635.91;;;6.06;81.08
61757;BME280;57225;61.460;24.060;2023-10-09T12:23:59;99629.88;;;5.93;82.15
61757;BME280;57225;61.460;24.060;2023-10-09T12:26:43;99633.41;;;5.90;82.51
61757;BME280;57225;61.460;24.060;2023-10-09T12:29:30;99643.28;;;5.51;82.98
61757;BME280;57225;61.460;24.060;2023-10-09T12:32:14;99634.19;;;5.47;84.63
61757;BME280;57225;61.460;24.060;2023-10-09T12:35:03;99652.63;;;5.36;84.57
61757;BME280;57225;61.460;24.060;2023-10-09T12:37:53;99642.94;;;5.15;84.94
61757;BME280;57225;61.460;24.060;2023-10-09T12:40:42;99647.56;;;5.04;83.74
61757;BME280;57225;61.460;24.060;2023-10-09T12:43:35;99646.22;;;4.91;83.85
61757;BME280;57225;61.460;24.060;2023-10-09T12:46:22;99650.50;;;4.85;84.92
61757;BME280;57225;61.460;24.060;2023-10-09T12:49:07;99651.22;;;4.82;85.36
61757;BME280;57225;61.460;24.060;2023-10-09T12:51:52;99652.56;;;4.92;85.32
61757;BME280;57225;61.460;24.060;2023-10-09T12:54:36;99655.97;;;5.15;83.70
61757;BME280;57225;61.460;24.060;2023-10-09T12:57:21;99667.84;;;5.19;84.13
61757;BME280;57225;61.460;24.060;2023-10-09T13:00:06;99659.50;;;5.12;82.77
61757;BME280;57225;61.460;24.060;2023-10-09T13:02:55;99662.56;;;5.07;82.78
61757;BME280;57225;61.460;24.060;2023-10-09T13:05:39;99659.81;;;5.07;82.15
61757;BME280;57225;61.460;24.060;2023-10-09T13:08:30;99658.50;;;5.31;81.66
61757;BME280;57225;61.460;24.060;2023-10-09T13:11:20;99662.34;;;5.63;81.01
61757;BME280;57225;61.460;24.060;2023-10-09T13:14:05;99657.31;;;5.69;78.29
61757;BME280;57225;61.460;24.060;2023-10-09T13:17:01;99652.00;;;5.93;79.01
61757;BME280;57225;61.460;24.060;2023-10-09T13:19:53;99657.69;;;6.15;76.00
61757;BME280;57225;61.460;24.060;2023-10-09T13:22:39;99660.44;;;6.15;74.95
61757;BME280;57225;61.460;24.060;2023-10-09T13:25:25;99651.69;;;6.05;76.24
61757;BME280;57225;61.460;24.060;2023-10-09T13:28:16;99657.88;;;5.88;74.89
61757;BME280;57225;61.460;24.060;2023-10-09T13:31:04;99661.06;;;5.90;76.62
61757;BME280;57225;61.460;24.060;2023-10-09T13:33:49;99649.88;;;5.80;76.78
61757;BME280;57225;61.460;24.060;2023-10-09T13:36:38;99655.81;;;5.82;77.95
61757;BME280;57225;61.460;24.060;2023-10-09T13:39:23;99666.59;;;5.90;78.68
61757;BME280;57225;61.460;24.060;2023-10-09T13:42:08;99657.00;;;5.81;79.77
61757;BME280;57225;61.460;24.060;2023-10-09T13:44:54;99669.81;;;5.55;79.40
61757;BME280;57225;61.460;24.060;2023-10-09T13:47:38;99674.19;;;5.60;80.97
61757;BME280;57225;61.460;24.060;2023-10-09T13:50:26;99670.31;;;5.68;81.09
61757;BME280;57225;61.460;24.060;2023-10-09T13:53:17;99672.41;;;5.82;80.67
61757;BME280;57225;61.460;24.060;2023-10-09T13:56:02;99665.69;;;5.79;78.69
61757;BME280;57225;61.460;24.060;2023-10-09T13:58:49;99662.97;;;5.86;78.35
61757;BME280;57225;61.460;24.060;2023-10-09T14:01:34;99668.88;;;5.81;78.74
61757;BME280;57225;61.460;24.060;2023-10-09T14:04:19;99651.38;;;5.70;79.16
61757;BME280;57225;61.460;24.060;2023-10-09T14:07:03;99664.00;;;5.68;78.46
61757;BME280;57225;61.460;24.060;2023-10-09T14:09:49;99656.06;;;5.62;81.16
61757;BME280;57225;61.460;24.060;2023-10-09T14:12:39;99646.56;;;5.60;81.62
61757;BME280;57225;61.460;24.060;2023-10-09T14:15:26;99657.31;;;5.69;81.73
61757;BME280;57225;61.460;24.060;2023-10-09T14:18:11;99660.09;;;5.72;81.19
61757;BME280;57225;61.460;24.060;2023-10-09T14:20:56;99660.78;;;5.62;81.20
61757;BME280;57225;61.460;24.060;2023-10-09T14:23:41;99666.38;;;5.69;82.80
61757;BME280;57225;61.460;24.060;2023-10-09T14:26:29;99649.78;;;5.69;82.59
61757;BME280;57225;61.460;24.060;2023-10-09T14:29:14;99662.56;;;5.84;81.81
61757;BME280;57225;61.460;24.060;2023-10-09T14:32:01;99659.25;;;5.68;83.42
61757;BME280;57225;61.460;24.060;2023-10-09T14:34:45;99670.72;;;5.70;85.18
61757;BME280;57225;61.460;24.060;2023-10-09T14:37:39;99671.88;;;5.69;85.54
61757;BME280;57225;61.460;24.060;2023-10-09T14:40:23;99679.00;;;5.66;86.00
61757;BME280;57225;61.460;24.060;2023-10-09T14:43:16;99684.00;;;5.54;86.26
61757;BME280;57225;61.460;24.060;2023-10-09T14:46:03;99684.31;;;5.45;86.55
61757;BME280;57225;61.460;24.060;2023-10-09T14:48:55;99683.44;;;5.38;86.93
61757;BME280;57225;61.460;24.060;2023-10-09T14:51:39;99670.94;;;5.14;87.62
61757;BME280;57225;61.460;24.060;2023-10-09T14:54:24;99681.59;;;5.12;88.91
61757;BME280;57225;61.460;24.060;2023-10-09T14:57:10;99692.59;;;5.08;90.90
61757;BME280;57225;61.460;24.060;2023-10-09T14:59:55;99698.06;;;5.05;92.16
61757;BME280;57225;61.460;24.060;2023-10-09T15:02:40;99688.00;;;4.90;94.25
61757;BME280;57225;61.460;24.060;2023-10-09T15:05:25;99691.47;;;4.83;96.34
61757;BME280;57225;61.460;24.060;2023-10-09T15:08:09;99690.56;;;4.45;100.00